Elizabeth — 9V8794 — position and weather

sailwx.info

Track history (hours):
 
Tides and Currents Weather Stations Pressure Air Temp Water Temp Dewpoint Dewpoint Depression Visibility Wind Speed Wind Dir Waves Ship Positions

Elizabeth

Last reported at 2018-Feb-06 04:39 UTC. Time now 2018-May-27 09:59 UTC.
Position N 01°15' E 104°06'.
Warning: this ship's position is months out of date.

Length 190 m; draft 7.1 m.

Type: Cargo ship. MMSI: 566073000.

Date/timePositionNaut miles runAvg speedWind from/ knotsBaromVisibWave heightAir tempDewpointWater temp
2018-Feb-06 04:39N 01°15' E 104°06'4 8.5
2018-Feb-06 04:12N 01°14' E 104°02'3 8.3
2018-Feb-06 03:53N 01°14' E 103°60'3 6.9
2018-Feb-06 03:30N 01°15' E 103°57'3 5.8
2018-Feb-06 03:00N 01°16' E 103°55'1 0.2
2018-Feb-05 23:40N 01°17' E 103°54'0 0.0
2018-Feb-05 23:19N 01°17' E 103°54'0 0.0
2018-Feb-05 22:49N 01°17' E 103°54'0 0.0
2018-Feb-05 21:52N 01°17' E 103°54'0 0.0
2018-Feb-05 20:58N 01°17' E 103°54'0 0.1
2018-Feb-05 20:28N 01°17' E 103°54'0 0.1
2018-Feb-05 19:46N 01°17' E 103°54'0 0.1
2018-Feb-05 19:19N 01°17' E 103°54'0 0.0
2018-Feb-05 18:58N 01°17' E 103°54'0 0.0
2018-Feb-05 16:46N 01°17' E 103°54'0 0.0
2018-Feb-05 16:04N 01°17' E 103°54'0 0.0
2018-Feb-05 15:49N 01°17' E 103°54'0 0.0
2018-Feb-05 14:22N 01°17' E 103°54'0 0.0
2018-Feb-05 13:46N 01°17' E 103°54'0 0.0
2018-Feb-05 13:19N 01°17' E 103°54'0 0.0
2018-Feb-05 12:58N 01°17' E 103°54'0 0.0
2018-Feb-05 11:10N 01°17' E 103°54'0 0.3
2018-Feb-05 10:58N 01°17' E 103°54'0 0.0
2018-Feb-05 09:37N 01°17' E 103°54'0 0.2
2018-Feb-05 09:16N 01°17' E 103°54'0 0.2
2018-Feb-05 08:55N 01°17' E 103°54'0 0.0
2018-Feb-05 08:19N 01°17' E 103°54'0 0.1
2018-Feb-05 07:37N 01°17' E 103°54'0 0.2
2018-Feb-05 07:13N 01°17' E 103°54'0 0.0
2018-Feb-05 05:28N 01°17' E 103°54'0 0.0
2018-Feb-05 04:58N 01°17' E 103°54'0 0.0
2018-Feb-05 04:22N 01°17' E 103°54'0 0.0
2018-Feb-05 03:52N 01°17' E 103°54'0 0.0
2018-Feb-05 03:16N 01°17' E 103°54'0 0.0
2018-Feb-05 02:43N 01°17' E 103°54'0 0.0
2018-Feb-05 02:25N 01°17' E 103°54'0 0.0
2018-Feb-05 01:52N 01°17' E 103°54'0 0.0
2018-Feb-05 01:16N 01°17' E 103°54'0 0.0
2018-Feb-05 00:58N 01°17' E 103°54'0 0.0
2018-Feb-05 00:04N 01°17' E 103°54'0 0.0
2018-Feb-04 23:58N 01°17' E 103°54'0 0.0
2018-Feb-04 23:28N 01°17' E 103°54'0 0.0
2018-Feb-04 22:46N 01°17' E 103°54'0 0.0
2018-Feb-04 22:19N 01°17' E 103°54'0 0.0
2018-Feb-04 21:21N 01°17' E 103°54'1 3.4
2018-Feb-04 20:57N 01°16' E 103°55'3 3.7
2018-Feb-04 20:00N 01°12' E 103°54'4 7.9
2018-Feb-04 19:30N 01°11' E 103°50'4 8.1
2018-Feb-04 19:00N 01°09' E 103°47'4 8.2
2018-Feb-04 18:29N 01°06' E 103°44'4 7.9
2018-Feb-04 17:59N 01°03' E 103°41'3 6.6
2018-Feb-04 17:30N 01°03' E 103°38'17 8.6
2018-Feb-04 15:28N 01°12' E 103°23'610.0
2018-Feb-04 14:49N 01°17' E 103°18'  
Track history (hours):
 
Tides and Currents Weather Stations Pressure Air Temp Water Temp Dewpoint Dewpoint Depression Visibility Wind Speed Wind Dir Waves Ship Positions

Elizabeth

Last reported at 2018-Feb-06 04:39 UTC. Time now 2018-May-27 09:59 UTC.
Position N 01°15' E 104°06'.
Warning: this ship's position is months out of date.

Length 190 m; draft 7.1 m.

Type: Cargo ship. MMSI: 566073000.

Date/timePositionNaut miles runAvg speedWind from/ knotsBaromVisibWave heightAir tempDewpointWater temp
2018-Feb-06 04:39N 01°15' E 104°06'4 8.5
2018-Feb-06 04:12N 01°14' E 104°02'3 8.3
2018-Feb-06 03:53N 01°14' E 103°60'3 6.9
2018-Feb-06 03:30N 01°15' E 103°57'3 5.8
2018-Feb-06 03:00N 01°16' E 103°55'1 0.2
2018-Feb-05 23:40N 01°17' E 103°54'0 0.0
2018-Feb-05 23:19N 01°17' E 103°54'0 0.0
2018-Feb-05 22:49N 01°17' E 103°54'0 0.0
2018-Feb-05 21:52N 01°17' E 103°54'0 0.0
2018-Feb-05 20:58N 01°17' E 103°54'0 0.1
2018-Feb-05 20:28N 01°17' E 103°54'0 0.1
2018-Feb-05 19:46N 01°17' E 103°54'0 0.1
2018-Feb-05 19:19N 01°17' E 103°54'0 0.0
2018-Feb-05 18:58N 01°17' E 103°54'0 0.0
2018-Feb-05 16:46N 01°17' E 103°54'0 0.0
2018-Feb-05 16:04N 01°17' E 103°54'0 0.0
2018-Feb-05 15:49N 01°17' E 103°54'0 0.0
2018-Feb-05 14:22N 01°17' E 103°54'0 0.0
2018-Feb-05 13:46N 01°17' E 103°54'0 0.0
2018-Feb-05 13:19N 01°17' E 103°54'0 0.0
2018-Feb-05 12:58N 01°17' E 103°54'0 0.0
2018-Feb-05 11:10N 01°17' E 103°54'0 0.3
2018-Feb-05 10:58N 01°17' E 103°54'0 0.0
2018-Feb-05 09:37N 01°17' E 103°54'0 0.2
2018-Feb-05 09:16N 01°17' E 103°54'0 0.2
2018-Feb-05 08:55N 01°17' E 103°54'0 0.0
2018-Feb-05 08:19N 01°17' E 103°54'0 0.1
2018-Feb-05 07:37N 01°17' E 103°54'0 0.2
2018-Feb-05 07:13N 01°17' E 103°54'0 0.0
2018-Feb-05 05:28N 01°17' E 103°54'0 0.0
2018-Feb-05 04:58N 01°17' E 103°54'0 0.0
2018-Feb-05 04:22N 01°17' E 103°54'0 0.0
2018-Feb-05 03:52N 01°17' E 103°54'0 0.0
2018-Feb-05 03:16N 01°17' E 103°54'0 0.0
2018-Feb-05 02:43N 01°17' E 103°54'0 0.0
2018-Feb-05 02:25N 01°17' E 103°54'0 0.0
2018-Feb-05 01:52N 01°17' E 103°54'0 0.0
2018-Feb-05 01:16N 01°17' E 103°54'0 0.0
2018-Feb-05 00:58N 01°17' E 103°54'0 0.0
2018-Feb-05 00:04N 01°17' E 103°54'0 0.0
2018-Feb-04 23:58N 01°17' E 103°54'0 0.0
2018-Feb-04 23:28N 01°17' E 103°54'0 0.0
2018-Feb-04 22:46N 01°17' E 103°54'0 0.0
2018-Feb-04 22:19N 01°17' E 103°54'0 0.0
2018-Feb-04 21:21N 01°17' E 103°54'1 3.4
2018-Feb-04 20:57N 01°16' E 103°55'3 3.7
2018-Feb-04 20:00N 01°12' E 103°54'4 7.9
2018-Feb-04 19:30N 01°11' E 103°50'4 8.1
2018-Feb-04 19:00N 01°09' E 103°47'4 8.2
2018-Feb-04 18:29N 01°06' E 103°44'4 7.9
2018-Feb-04 17:59N 01°03' E 103°41'3 6.6
2018-Feb-04 17:30N 01°03' E 103°38'17 8.6
2018-Feb-04 15:28N 01°12' E 103°23'610.0
2018-Feb-04 14:49N 01°17' E 103°18'  

Dump ship's entire track history